createdAt,value
2023-03-17T00:03:32.005Z,8.20
2023-03-17T00:06:33.938Z,8.20
2023-03-17T00:09:35.598Z,7.80
2023-03-17T00:12:37.586Z,8.10
2023-03-17T00:15:40.217Z,8.00
2023-03-17T00:18:42.138Z,8.00
2023-03-17T00:21:45.881Z,8.20
2023-03-17T00:24:47.552Z,8.30
2023-03-17T00:27:50.098Z,8.30
2023-03-17T00:30:55.661Z,8.50
2023-03-17T00:33:58.294Z,8.50
2023-03-17T00:37:00.689Z,8.40
2023-03-17T00:40:09.356Z,8.50
2023-03-17T00:43:11.158Z,8.60
2023-03-17T00:46:16.572Z,8.40
2023-03-17T00:49:21.222Z,8.30
2023-03-17T00:52:22.961Z,8.50
2023-03-17T00:55:26.600Z,8.50
2023-03-17T00:58:32.508Z,8.60
2023-03-17T01:01:34.226Z,8.60
2023-03-17T01:04:35.929Z,8.60
2023-03-17T01:07:38.167Z,8.50
2023-03-17T01:10:40.796Z,8.50
2023-03-17T01:13:42.468Z,8.60
2023-03-17T01:16:44.725Z,8.60
2023-03-17T01:19:47.052Z,8.30
2023-03-17T01:22:49.562Z,8.20
2023-03-17T01:25:51.437Z,8.10
2023-03-17T01:28:53.820Z,8.40
2023-03-17T01:31:55.561Z,8.20
2023-03-17T01:46:09.551Z,8.60
2023-03-17T01:49:29.296Z,8.60
2023-03-17T01:52:31.191Z,8.40
2023-03-17T01:55:32.881Z,8.10
2023-03-17T01:58:35.272Z,7.70
2023-03-17T02:01:44.909Z,8.10
2023-03-17T02:04:46.740Z,7.90
2023-03-17T02:07:49.183Z,7.70
2023-03-17T02:10:52.314Z,7.50
2023-03-17T02:13:54.607Z,7.50
2023-03-17T02:16:57.271Z,7.40
2023-03-17T02:20:15.978Z,7.20
2023-03-17T02:23:23.242Z,7.30
2023-03-17T02:26:26.656Z,7.20
2023-03-17T02:32:56.463Z,7.20
2023-03-17T02:35:58.752Z,7.00
2023-03-17T02:39:01.757Z,6.80
2023-03-17T02:42:09.447Z,7.80
2023-03-17T02:45:15.458Z,6.80
2023-03-17T02:48:18.202Z,6.90
2023-03-17T02:51:23.646Z,7.30
2023-03-17T02:54:25.656Z,7.40
2023-03-17T02:57:31.246Z,7.60
2023-03-17T03:00:34.197Z,7.20
2023-03-17T03:03:37.616Z,6.90
2023-03-17T03:06:48.731Z,7.00
2023-03-17T03:09:51.019Z,7.80
2023-03-17T03:17:34.442Z,6.80
2023-03-17T03:20:37.728Z,6.70
2023-03-17T03:23:43.400Z,8.00
2023-03-17T03:26:45.358Z,6.30
2023-03-17T03:29:50.013Z,6.20
2023-03-17T03:32:52.229Z,6.40
2023-03-17T03:35:57.525Z,6.30
2023-03-17T03:39:01.210Z,6.50
2023-03-17T03:42:04.125Z,6.10
2023-03-17T03:45:09.084Z,6.10
2023-03-17T03:48:11.414Z,5.90
2023-03-17T03:51:24.320Z,5.80
2023-03-17T03:54:26.179Z,5.80
2023-03-17T03:57:34.004Z,5.50
2023-03-17T04:00:41.605Z,5.70
2023-03-17T04:03:43.721Z,5.60
2023-03-17T04:06:45.626Z,5.60
2023-03-17T04:09:52.320Z,5.30
2023-03-17T04:12:54.334Z,5.50
2023-03-17T04:19:19.225Z,5.50
2023-03-17T04:26:34.300Z,5.20
2023-03-17T04:29:36.709Z,5.10
2023-03-17T04:32:38.750Z,5.10
2023-03-17T04:35:41.590Z,5.60
2023-03-17T04:42:00.777Z,5.20
2023-03-17T04:45:06.698Z,5.00
2023-03-17T04:48:11.877Z,5.00
2023-03-17T04:51:14.009Z,5.70
2023-03-17T04:54:16.539Z,5.70
2023-03-17T04:57:19.134Z,5.70
2023-03-17T05:00:21.410Z,5.60
2023-03-17T05:03:27.590Z,4.90
2023-03-17T05:06:31.692Z,5.00
2023-03-17T05:09:33.834Z,6.30
2023-03-17T05:13:30.097Z,5.20
2023-03-17T05:16:32.040Z,5.00
2023-03-17T05:19:36.075Z,5.10
2023-03-17T05:22:40.839Z,5.30
2023-03-17T05:25:43.024Z,5.00
2023-03-17T05:28:48.468Z,5.00
2023-03-17T05:31:56.216Z,5.00
2023-03-17T05:35:07.433Z,5.40
2023-03-17T05:38:18.544Z,4.90
2023-03-17T05:41:23.038Z,4.90
2023-03-17T05:44:27.070Z,5.10
2023-03-17T05:47:28.898Z,4.70
2023-03-17T05:50:33.815Z,4.90
2023-03-17T05:53:38.502Z,4.60
2023-03-17T05:56:41.378Z,4.60
2023-03-17T05:59:43.972Z,4.80
2023-03-17T06:02:46.152Z,5.50
2023-03-17T06:05:53.657Z,4.70
2023-03-17T06:08:58.362Z,5.30
2023-03-17T06:12:04.517Z,4.60
2023-03-17T06:15:08.789Z,4.60
2023-03-17T06:18:11.064Z,4.60
2023-03-17T06:21:13.909Z,4.80
2023-03-17T06:24:16.670Z,4.60
2023-03-17T06:27:18.699Z,5.20
2023-03-17T06:30:23.636Z,4.60
2023-03-17T06:33:26.288Z,4.80
2023-03-17T06:36:28.583Z,4.70
2023-03-17T06:39:30.501Z,5.00
2023-03-17T06:42:35.121Z,5.10
2023-03-17T06:45:37.866Z,5.40
2023-03-17T06:48:40.285Z,5.30
2023-03-17T06:51:42.261Z,5.40
2023-03-17T06:54:50.476Z,5.60
2023-03-17T06:57:52.696Z,5.50
2023-03-17T07:00:54.628Z,5.80
2023-03-17T07:03:56.654Z,7.40
2023-03-17T07:07:01.156Z,6.40
2023-03-17T07:13:25.972Z,6.40
2023-03-17T07:16:28.939Z,6.50
2023-03-17T07:19:32.064Z,8.60
2023-03-17T07:22:36.990Z,7.40
2023-03-17T07:25:40.958Z,7.80
2023-03-17T07:28:43.595Z,8.10
2023-03-17T07:31:45.874Z,8.40
2023-03-17T07:34:58.407Z,10.10
2023-03-17T07:38:01.701Z,8.60
2023-03-17T07:41:04.953Z,9.20
2023-03-17T07:44:07.095Z,9.30
2023-03-17T07:47:16.398Z,10.70
2023-03-17T07:50:31.810Z,9.60
2023-03-17T07:53:45.280Z,9.80
2023-03-17T07:56:47.365Z,9.90
2023-03-17T07:59:49.831Z,10.10
2023-03-17T08:03:07.080Z,10.20
2023-03-17T08:06:12.227Z,10.30
2023-03-17T08:09:17.112Z,10.40
2023-03-17T08:12:21.776Z,10.40
2023-03-17T08:15:23.736Z,10.80
2023-03-17T08:18:26.457Z,11.10
2023-03-17T08:21:32.535Z,11.10
2023-03-17T08:24:34.764Z,11.30
2023-03-17T08:27:38.935Z,11.20
2023-03-17T08:30:42.737Z,11.40
2023-03-17T08:33:51.067Z,11.50
2023-03-17T08:36:53.286Z,11.70
2023-03-17T08:39:55.582Z,11.90
2023-03-17T08:42:57.773Z,11.90
2023-03-17T08:46:12.964Z,12.10
2023-03-17T08:49:19.876Z,12.20
2023-03-17T08:52:23.065Z,12.30
2023-03-17T08:55:25.179Z,12.20
2023-03-17T08:58:35.711Z,13.20
2023-03-17T09:01:40.540Z,12.50
2023-03-17T09:04:49.400Z,12.60
2023-03-17T09:07:54.430Z,12.80
2023-03-17T09:10:57.172Z,12.90
2023-03-17T09:14:03.633Z,13.00
2023-03-17T09:17:11.623Z,13.20
2023-03-17T09:20:16.416Z,13.20
2023-03-17T09:23:23.661Z,13.60
2023-03-17T09:26:26.471Z,13.70
2023-03-17T09:29:34.037Z,13.90
2023-03-17T09:32:40.766Z,13.70
2023-03-17T09:35:51.780Z,13.70
2023-03-17T09:46:38.024Z,14.10
2023-03-17T09:50:01.319Z,14.20
2023-03-17T09:53:06.198Z,14.50
2023-03-17T09:56:19.255Z,14.70
2023-03-17T09:59:34.036Z,14.60
2023-03-17T10:02:38.177Z,14.90
2023-03-17T10:05:43.277Z,15.00
2023-03-17T10:09:10.086Z,15.30
2023-03-17T10:12:37.097Z,15.10
2023-03-17T10:16:01.764Z,15.30
2023-03-17T10:19:31.656Z,15.60
2023-03-17T10:22:48.618Z,16.00
2023-03-17T10:25:50.771Z,16.30
2023-03-17T10:28:54.171Z,16.60
2023-03-17T10:31:59.041Z,16.80
2023-03-17T10:35:05.202Z,16.70
2023-03-17T10:38:21.030Z,17.30
2023-03-17T10:41:23.287Z,16.80
2023-03-17T10:45:00.397Z,17.00
2023-03-17T10:48:09.466Z,17.30
2023-03-17T10:51:30.709Z,17.40
2023-03-17T10:54:36.077Z,17.90
2023-03-17T10:57:39.059Z,17.80
2023-03-17T11:01:00.420Z,17.80
2023-03-17T11:04:06.587Z,18.10
2023-03-17T11:07:27.512Z,18.40
2023-03-17T11:10:38.072Z,18.20
2023-03-17T11:13:40.097Z,18.00
2023-03-17T11:16:59.606Z,18.20
2023-03-17T11:20:13.945Z,18.10
2023-03-17T11:23:19.671Z,18.20
2023-03-17T11:26:44.936Z,18.10
2023-03-17T11:30:01.877Z,18.10
2023-03-17T11:33:47.724Z,18.20
2023-03-17T11:37:02.498Z,18.40
2023-03-17T11:40:22.113Z,18.40
2023-03-17T11:44:01.659Z,18.20
2023-03-17T11:47:28.015Z,17.90
2023-03-17T11:51:06.949Z,18.00
2023-03-17T11:54:42.782Z,18.30
2023-03-17T11:57:54.022Z,18.40
2023-03-17T12:01:09.044Z,18.40
2023-03-17T12:04:14.746Z,18.60
2023-03-17T12:07:31.937Z,18.50
2023-03-17T12:10:49.200Z,18.20
2023-03-17T12:13:55.320Z,18.40
2023-03-17T12:17:26.994Z,18.90
2023-03-17T12:20:41.139Z,18.10
2023-03-17T12:24:09.015Z,18.50
2023-03-17T12:27:27.511Z,18.40
2023-03-17T12:30:39.002Z,19.30
2023-03-17T12:33:53.642Z,18.90
2023-03-17T12:36:58.866Z,18.70
2023-03-17T12:40:16.532Z,18.50
2023-03-17T12:43:53.793Z,18.60
2023-03-17T12:47:24.152Z,18.70
2023-03-17T12:50:46.757Z,18.60
2023-03-17T12:53:50.950Z,18.50
2023-03-17T12:56:53.587Z,18.60
2023-03-17T13:00:05.755Z,19.40
2023-03-17T13:03:35.445Z,18.40
2023-03-17T13:07:13.099Z,18.70
2023-03-17T13:10:51.754Z,18.80
2023-03-17T13:14:18.477Z,18.90
2023-03-17T13:17:45.817Z,18.90
2023-03-17T13:20:56.812Z,18.80
2023-03-17T13:24:23.541Z,19.60
2023-03-17T13:27:44.054Z,18.90
2023-03-17T13:31:16.459Z,19.00
2023-03-17T13:34:23.812Z,19.10
2023-03-17T13:37:31.930Z,19.10
2023-03-17T13:40:57.287Z,19.00
2023-03-17T13:44:32.376Z,19.70
2023-03-17T13:47:55.437Z,19.10
2023-03-17T13:51:15.464Z,19.30
2023-03-17T13:54:34.375Z,19.50
2023-03-17T13:57:43.985Z,19.50
2023-03-17T14:00:57.742Z,19.70
2023-03-17T14:04:13.199Z,19.50
2023-03-17T14:07:19.800Z,19.40
2023-03-17T14:10:27.224Z,19.20
2023-03-17T14:14:19.797Z,19.20
2023-03-17T14:17:37.092Z,19.30
2023-03-17T14:20:43.825Z,19.40
2023-03-17T14:24:01.644Z,19.40
2023-03-17T14:27:20.545Z,19.70
2023-03-17T14:30:32.272Z,18.90
2023-03-17T14:33:40.142Z,18.90
2023-03-17T14:36:42.813Z,18.70
2023-03-17T14:39:55.500Z,18.50
2023-03-17T14:42:58.345Z,18.50
2023-03-17T14:46:09.131Z,18.50
2023-03-17T14:49:22.848Z,18.50
2023-03-17T14:52:33.218Z,18.50
2023-03-17T14:55:43.730Z,18.90
2023-03-17T14:58:51.875Z,19.30
2023-03-17T15:01:59.846Z,19.00
2023-03-17T15:05:30.833Z,19.30
2023-03-17T15:08:43.901Z,21.30
2023-03-17T15:11:47.627Z,20.50
2023-03-17T15:14:56.729Z,19.60
2023-03-17T15:18:12.037Z,19.50
2023-03-17T15:21:43.608Z,19.50
2023-03-17T15:24:55.946Z,19.10
2023-03-17T15:27:58.738Z,19.40
2023-03-17T15:31:13.188Z,19.30
2023-03-17T15:34:18.539Z,19.00
2023-03-17T15:37:30.194Z,18.70
2023-03-17T15:40:35.241Z,19.00
2023-03-17T15:43:49.294Z,18.90
2023-03-17T15:46:52.902Z,19.00
2023-03-17T15:50:02.032Z,18.10
2023-03-17T15:53:04.815Z,18.10
2023-03-17T15:56:19.303Z,18.10
2023-03-17T15:59:25.530Z,18.20
2023-03-17T16:02:38.610Z,17.90
2023-03-17T16:05:41.491Z,17.90
2023-03-17T16:08:44.287Z,18.50
2023-03-17T16:11:46.728Z,17.60
2023-03-17T16:14:49.383Z,18.20
2023-03-17T16:17:59.728Z,17.60
2023-03-17T16:21:04.239Z,17.70
2023-03-17T16:24:21.947Z,17.30
2023-03-17T16:27:27.797Z,17.20
2023-03-17T16:30:34.780Z,18.00
2023-03-17T16:33:41.287Z,17.00
2023-03-17T16:36:51.511Z,16.50
2023-03-17T16:40:01.846Z,17.00
2023-03-17T16:43:25.307Z,16.90
2023-03-17T16:46:38.918Z,16.90
2023-03-17T16:49:48.849Z,16.90
2023-03-17T16:52:51.694Z,16.90
2023-03-17T16:55:58.644Z,17.50
2023-03-17T16:59:04.772Z,16.60
2023-03-17T17:02:16.466Z,16.90
2023-03-17T17:05:24.573Z,16.40
2023-03-17T17:08:29.893Z,16.20
2023-03-17T17:11:38.261Z,15.10
2023-03-17T17:14:47.904Z,16.10
2023-03-17T17:21:38.622Z,15.90
2023-03-17T17:24:45.912Z,15.80
2023-03-17T17:28:00.201Z,15.90
2023-03-17T17:31:05.985Z,15.80
2023-03-17T17:34:10.767Z,15.70
2023-03-17T17:37:19.391Z,15.70
2023-03-17T17:40:27.117Z,15.70
2023-03-17T17:43:32.910Z,15.60
2023-03-17T17:46:35.828Z,16.20
2023-03-17T17:49:50.104Z,15.40
2023-03-17T17:53:01.548Z,15.20
2023-03-17T17:56:19.164Z,15.20
2023-03-17T17:59:24.390Z,15.30
2023-03-17T18:02:33.933Z,14.80
2023-03-17T18:05:45.106Z,14.70
2023-03-17T18:08:51.019Z,14.80
2023-03-17T18:12:13.446Z,14.70
2023-03-17T18:15:27.006Z,14.70
2023-03-17T18:18:49.598Z,16.10
2023-03-17T18:21:58.662Z,15.00
2023-03-17T18:25:08.168Z,14.50
2023-03-17T18:28:14.368Z,14.20
2023-03-17T18:31:30.087Z,13.90
2023-03-17T18:34:49.967Z,14.10
2023-03-17T18:38:05.572Z,14.50
2023-03-17T18:41:15.684Z,14.20
2023-03-17T18:44:25.262Z,14.50
2023-03-17T18:47:44.915Z,15.30
2023-03-17T18:51:00.659Z,16.20
2023-03-17T18:54:11.748Z,14.60
2023-03-17T18:57:21.970Z,14.60
2023-03-17T19:00:26.401Z,14.70
2023-03-17T19:03:39.114Z,14.60
2023-03-17T19:06:44.334Z,15.10
2023-03-17T19:09:47.184Z,14.50
2023-03-17T19:12:55.841Z,15.40
2023-03-17T19:16:01.290Z,14.30
2023-03-17T19:19:07.399Z,14.40
2023-03-17T19:22:14.564Z,14.40
2023-03-17T19:25:25.195Z,14.40
2023-03-17T19:28:27.838Z,14.70
2023-03-17T19:31:41.888Z,14.20
2023-03-17T19:34:50.278Z,14.20
2023-03-17T19:38:13.056Z,14.10
2023-03-17T19:41:18.082Z,15.00
2023-03-17T19:44:21.558Z,14.70
2023-03-17T19:47:33.588Z,14.00
2023-03-17T19:50:41.627Z,14.00
2023-03-17T19:53:52.879Z,13.90
2023-03-17T19:57:04.555Z,13.90
2023-03-17T20:00:13.291Z,13.90
2023-03-17T20:03:17.868Z,13.90
2023-03-17T20:06:20.703Z,13.90
2023-03-17T20:09:32.396Z,14.70
2023-03-17T20:12:37.780Z,13.80
2023-03-17T20:15:41.556Z,14.90
2023-03-17T20:18:51.179Z,13.70
2023-03-17T20:21:58.741Z,13.80
2023-03-17T20:25:02.816Z,13.60
2023-03-17T20:28:13.074Z,13.60
2023-03-17T20:31:19.702Z,13.60
2023-03-17T20:34:29.485Z,14.50
2023-03-17T20:37:44.550Z,13.50
2023-03-17T20:40:54.209Z,14.00
2023-03-17T20:44:20.681Z,13.50
2023-03-17T20:47:27.030Z,13.40
2023-03-17T20:50:36.271Z,13.30
2023-03-17T20:54:11.621Z,13.30
2023-03-17T20:57:32.657Z,14.10
2023-03-17T21:00:40.872Z,13.40
2023-03-17T21:03:56.733Z,13.70
2023-03-17T21:07:15.271Z,13.10
2023-03-17T21:10:33.498Z,12.10
2023-03-17T21:13:36.967Z,13.20
2023-03-17T21:16:47.546Z,13.70
2023-03-17T21:19:58.348Z,13.30
2023-03-17T21:23:12.993Z,13.20
2023-03-17T21:26:17.664Z,13.20
2023-03-17T21:29:30.194Z,14.80
2023-03-17T21:32:36.888Z,13.60
2023-03-17T21:35:40.271Z,13.20
2023-03-17T21:38:51.221Z,13.20
2023-03-17T21:42:05.608Z,13.60
2023-03-17T21:45:11.473Z,14.00
2023-03-17T21:48:14.846Z,13.20
2023-03-17T21:51:21.211Z,13.30
2023-03-17T21:54:29.086Z,13.20
2023-03-17T21:57:31.466Z,13.20
2023-03-17T22:00:44.692Z,13.50
2023-03-17T22:03:48.850Z,13.30
2023-03-17T22:06:56.518Z,13.90
2023-03-17T22:09:58.489Z,13.30
2023-03-17T22:13:00.892Z,13.20
2023-03-17T22:16:06.328Z,13.60
2023-03-17T22:19:11.351Z,13.10
2023-03-17T22:22:13.464Z,14.80
2023-03-17T22:25:15.594Z,13.20
2023-03-17T22:28:19.762Z,13.10
2023-03-17T22:31:25.046Z,13.00
2023-03-17T22:34:27.541Z,13.60
2023-03-17T22:37:29.844Z,13.10
2023-03-17T22:40:32.066Z,13.00
2023-03-17T22:43:35.457Z,13.90
2023-03-17T22:46:49.775Z,13.00
2023-03-17T22:50:01.566Z,13.00
2023-03-17T22:53:04.200Z,13.00
2023-03-17T22:56:07.122Z,14.40
2023-03-17T22:59:09.372Z,13.00
2023-03-17T23:02:11.590Z,14.60
2023-03-17T23:05:14.798Z,12.90
2023-03-17T23:08:23.241Z,13.70
2023-03-17T23:11:26.966Z,12.90
2023-03-17T23:14:28.879Z,12.90
2023-03-17T23:17:31.255Z,14.40
2023-03-17T23:20:33.929Z,12.90
2023-03-17T23:23:43.708Z,12.80
2023-03-17T23:26:45.746Z,12.90
2023-03-17T23:29:50.424Z,13.70
2023-03-17T23:33:00.441Z,13.50
2023-03-17T23:36:09.764Z,12.80
2023-03-17T23:39:12.033Z,12.80
2023-03-17T23:42:18.090Z,13.20
2023-03-17T23:45:30.259Z,12.80
2023-03-17T23:48:36.750Z,12.80
2023-03-17T23:51:45.846Z,12.90
2023-03-17T23:54:48.828Z,12.90
2023-03-17T23:57:51.130Z,13.80
